Terminal Aerodrome Forecast
Issued by NWS Mt. Holly, NJ

Home | Current Version | Previous Version | Text Only | Print | Product List | Glossary On
Versions: 1 2 3 4 5 6 7 8 9 10 11 12 13 14 15 16 17
000
FTUS41 KPHI 240523
TAFACY
TAF
KACY 240523Z 2406/2506 20005KT P6SM FEW250
     FM241300 19007KT P6SM SCT120 BKN250
     FM241600 20012G19KT P6SM BKN050 BKN100
     FM242100 22010KT P6SM SCT050 BKN100
     FM250100 22007KT P6SM BKN100=

USA.gov is the U.S. government's official web portal to all federal, state and local government web resources and services.